Time;durP1;ratioP1;P1;durP2;ratioP2;P2;SDS_P1;SDS_P2;PMS_P1;PMS_P2;Temp;Humidity;BMP_temperature;BMP_pressure;BME280_temperature;BME280_humidity;BME280_pressure;Samples;Min_cycle;Max_cycle;Signal;HPM_P1;HPM_P2
2021/07/27 06:10:39;;;;;;;;;;;20.30;99.90;;;;;;7086996;27;20026;-66
2021/07/27 06:14:00;;;;;;;;;;;20.30;99.90;;;;;;7041353;27;19915;-67
2021/07/27 06:17:21;;;;;;;;;;;20.40;99.90;;;;;;7065054;27;19922;-68
2021/07/27 06:20:42;;;;;;;;;;;20.50;99.90;;;;;;7053165;27;20431;-67
2021/07/27 06:24:03;;;;;;;;;;;20.30;99.90;;;;;;7054890;27;20359;-67
2021/07/27 06:27:24;;;;;;;;;;;20.30;99.90;;;;;;7050420;27;20292;-67
2021/07/27 06:30:47;;;;;;;;;;;20.50;99.90;;;;;;7042655;27;19922;-66
2021/07/27 06:34:08;;;;;;;;;;;20.80;99.90;;;;;;7060112;27;19921;-66
2021/07/27 06:37:28;;;;;;;;;;;20.70;99.90;;;;;;7030621;27;19911;-67
2021/07/27 06:40:50;;;;;;;;;;;20.70;99.90;;;;;;7055047;27;19918;-68
2021/07/27 06:44:11;;;;;;;;;;;20.70;99.90;;;;;;7045298;27;19926;-68
2021/07/27 06:47:32;;;;;;;;;;;20.70;99.90;;;;;;7032473;27;19953;-68
2021/07/27 06:50:53;;;;;;;;;;;20.70;99.90;;;;;;7025118;27;19911;-68
2021/07/27 06:54:14;;;;;;;;;;;20.70;99.90;;;;;;7039949;27;19968;-68
2021/07/27 06:57:34;;;;;;;;;;;20.80;99.90;;;;;;7040271;27;20430;-68
2021/07/27 07:00:58;;;;;;;;;;;21.00;99.90;;;;;;7043434;27;20057;-67
2021/07/27 07:04:19;;;;;;;;;;;21.10;99.90;;;;;;7036921;27;19939;-66
2021/07/27 07:07:39;;;;;;;;;;;21.10;99.90;;;;;;7038937;27;19918;-66
2021/07/27 07:11:01;;;;;;;;;;;20.90;99.90;;;;;;7053026;27;19912;-66
2021/07/27 07:14:23;;;;;;;;;;;20.80;99.90;;;;;;7053771;27;20340;-66
2021/07/27 07:17:43;;;;;;;;;;;21.10;99.90;;;;;;7030279;27;20443;-67
2021/07/27 07:21:05;;;;;;;;;;;21.20;99.90;;;;;;7021591;27;20388;-68
2021/07/27 07:24:25;;;;;;;;;;;21.40;99.90;;;;;;7023010;27;19951;-66
2021/07/27 07:27:46;;;;;;;;;;;21.50;99.90;;;;;;7032353;27;19920;-68
2021/07/27 07:31:09;;;;;;;;;;;21.60;99.90;;;;;;7014454;27;19934;-68
2021/07/27 07:34:31;;;;;;;;;;;21.50;99.90;;;;;;7035743;27;19994;-66
2021/07/27 07:37:52;;;;;;;;;;;21.60;99.90;;;;;;7034351;27;19912;-66
2021/07/27 07:41:12;;;;;;;;;;;21.80;99.90;;;;;;7004538;27;20261;-65
2021/07/27 07:44:34;;;;;;;;;;;22.10;99.90;;;;;;7028592;27;19965;-66
2021/07/27 07:47:55;;;;;;;;;;;22.10;99.90;;;;;;7022866;27;19915;-68
2021/07/27 07:51:16;;;;;;;;;;;22.10;99.90;;;;;;6999704;27;19919;-65
2021/07/27 07:54:38;;;;;;;;;;;22.10;99.90;;;;;;7018749;27;19911;-67
2021/07/27 07:58:01;;;;;;;;;;;22.10;99.90;;;;;;7025633;27;20363;-67
2021/07/27 08:01:21;;;;;;;;;;;22.50;99.90;;;;;;7031604;27;19916;-66
2021/07/27 08:04:42;;;;;;;;;;;22.80;99.90;;;;;;7032929;27;19922;-67
2021/07/27 08:08:03;;;;;;;;;;;23.00;99.90;;;;;;7029168;27;19924;-67
2021/07/27 08:11:24;;;;;;;;;;;23.30;99.90;;;;;;7012713;27;19926;-66
2021/07/27 08:14:45;;;;;;;;;;;23.30;99.90;;;;;;7020130;27;19952;-66
2021/07/27 08:18:05;;;;;;;;;;;23.50;99.90;;;;;;7040048;27;20375;-66
2021/07/27 08:21:26;;;;;;;;;;;23.60;99.90;;;;;;7029663;28;19912;-66
2021/07/27 08:24:47;;;;;;;;;;;23.30;99.90;;;;;;7031797;27;19997;-66
2021/07/27 08:28:08;;;;;;;;;;;23.40;99.90;;;;;;7016886;27;19915;-66
2021/07/27 08:31:29;;;;;;;;;;;23.50;99.90;;;;;;7013115;28;20396;-68
2021/07/27 08:35:16;;;;;;;;;;;23.40;99.90;;;;;;7012971;27;19965;-66
2021/07/27 08:38:37;;;;;;;;;;;23.80;99.90;;;;;;7024268;27;20273;-69
2021/07/27 08:41:59;;;;;;;;;;;24.70;99.90;;;;;;7016763;27;19919;-66
2021/07/27 08:45:20;;;;;;;;;;;24.80;99.90;;;;;;7035638;27;20019;-65
2021/07/27 08:48:41;;;;;;;;;;;25.30;99.90;;;;;;7024769;27;19915;-66
2021/07/27 08:52:02;;;;;;;;;;;25.00;99.90;;;;;;7023886;28;19918;-67
2021/07/27 08:55:23;;;;;;;;;;;24.30;99.90;;;;;;7013673;27;19912;-67
2021/07/27 08:58:43;;;;;;;;;;;23.60;99.90;;;;;;7038310;27;19935;-65
2021/07/27 09:02:04;;;;;;;;;;;23.20;99.90;;;;;;7004901;27;19920;-67
2021/07/27 09:05:25;;;;;;;;;;;22.90;99.90;;;;;;7021882;27;19915;-67
2021/07/27 09:08:46;;;;;;;;;;;22.80;99.90;;;;;;7009019;27;20276;-66
2021/07/27 09:12:10;;;;;;;;;;;23.00;99.90;;;;;;7000599;27;19920;-65
2021/07/27 09:15:32;;;;;;;;;;;23.40;99.90;;;;;;7018173;27;19912;-67
2021/07/27 09:19:00;;;;;;;;;;;24.00;99.90;;;;;;7026766;27;20018;-67
2021/07/27 09:22:20;;;;;;;;;;;24.30;99.90;;;;;;7024336;27;20296;-65
2021/07/27 09:25:45;;;;;;;;;;;24.00;99.90;;;;;;7043165;27;19955;-65
2021/07/27 09:29:06;;;;;;;;;;;23.20;99.90;;;;;;7025467;27;19915;-65
2021/07/27 09:32:26;;;;;;;;;;;22.70;99.90;;;;;;7018100;27;19919;-66
2021/07/27 09:35:51;;;;;;;;;;;22.50;99.90;;;;;;7007601;27;19918;-68
2021/07/27 09:39:12;;;;;;;;;;;22.40;99.90;;;;;;7005584;27;20010;-65
2021/07/27 09:42:34;;;;;;;;;;;22.80;99.90;;;;;;7013033;27;19970;-67
2021/07/27 09:45:56;;;;;;;;;;;22.60;99.90;;;;;;7015750;28;19912;-68
2021/07/27 09:49:18;;;;;;;;;;;22.50;99.90;;;;;;6994121;27;19922;-68
2021/07/27 09:52:39;;;;;;;;;;;22.60;99.90;;;;;;7022566;27;20383;-66
2021/07/27 09:56:01;;;;;;;;;;;23.30;99.90;;;;;;7023673;27;19918;-68
2021/07/27 09:59:23;;;;;;;;;;;24.00;99.90;;;;;;7023733;27;20331;-68
2021/07/27 10:02:46;;;;;;;;;;;24.10;99.90;;;;;;7032427;27;20391;-68
2021/07/27 10:06:07;;;;;;;;;;;23.70;99.90;;;;;;7013709;28;19946;-67
2021/07/27 10:09:32;;;;;;;;;;;23.60;99.90;;;;;;7029109;27;19922;-68
2021/07/27 10:13:03;;;;;;;;;;;23.40;99.90;;;;;;7018050;28;19912;-70
2021/07/27 10:16:28;;;;;;;;;;;23.20;99.90;;;;;;7035273;28;19916;-68
2021/07/27 10:19:56;;;;;;;;;;;22.60;99.90;;;;;;6998137;28;19916;-68
2021/07/27 10:23:19;;;;;;;;;;;22.90;99.90;;;;;;7016348;28;20324;-69
2021/07/27 10:26:40;;;;;;;;;;;22.60;99.90;;;;;;7009345;28;19927;-69
2021/07/27 10:30:10;;;;;;;;;;;22.60;99.90;;;;;;7010889;28;19955;-69
2021/07/27 10:33:31;;;;;;;;;;;22.50;99.90;;;;;;7013179;28;19916;-68
2021/07/27 10:36:53;;;;;;;;;;;22.40;99.90;;;;;;7012521;28;20437;-68
2021/07/27 10:40:17;;;;;;;;;;;22.60;99.90;;;;;;7031809;28;19915;-68
2021/07/27 10:43:38;;;;;;;;;;;22.70;99.90;;;;;;7032683;28;19912;-69
2021/07/27 10:46:59;;;;;;;;;;;23.00;99.90;;;;;;7010678;28;19950;-68
2021/07/27 10:50:27;;;;;;;;;;;23.30;99.90;;;;;;7036640;28;19925;-69
2021/07/27 10:53:50;;;;;;;;;;;23.80;99.90;;;;;;6994901;27;19911;-69
2021/07/27 10:57:14;;;;;;;;;;;24.40;99.90;;;;;;7015875;27;20597;-67
2021/07/27 11:00:35;;;;;;;;;;;24.90;99.90;;;;;;7024775;27;19945;-66
2021/07/27 11:04:11;;;;;;;;;;;25.60;99.90;;;;;;6996675;28;20047;-67
2021/07/27 11:07:34;;;;;;;;;;;26.10;99.90;;;;;;7002984;27;19919;-67
2021/07/27 11:11:10;;;;;;;;;;;26.50;99.90;;;;;;7016524;27;19915;-66
2021/07/27 11:14:31;;;;;;;;;;;27.00;99.90;;;;;;7032724;27;20010;-68
2021/07/27 11:17:55;;;;;;;;;;;26.10;99.90;;;;;;7036357;27;19911;-69
2021/07/27 11:21:17;;;;;;;;;;;25.50;99.90;;;;;;7023398;28;19980;-68
2021/07/27 11:24:39;;;;;;;;;;;24.80;99.90;;;;;;7015423;27;19915;-69
2021/07/27 11:28:09;;;;;;;;;;;24.70;99.90;;;;;;7017678;27;19915;-68
2021/07/27 11:31:29;;;;;;;;;;;24.80;99.90;;;;;;7037456;27;19919;-69
2021/07/27 11:34:55;;;;;;;;;;;24.90;99.90;;;;;;7052765;27;19943;-69
2021/07/27 11:38:20;;;;;;;;;;;24.70;99.90;;;;;;7024547;27;19915;-69
2021/07/27 11:41:44;;;;;;;;;;;24.50;99.90;;;;;;7018967;27;19922;-68
2021/07/27 11:45:05;;;;;;;;;;;24.70;99.90;;;;;;7038948;27;19915;-67
2021/07/27 11:48:31;;;;;;;;;;;25.90;99.90;;;;;;7016102;27;19920;-68
2021/07/27 11:52:03;;;;;;;;;;;26.80;99.90;;;;;;7020367;27;19919;-67
2021/07/27 11:55:27;;;;;;;;;;;27.10;99.90;;;;;;7024428;27;19916;-67
2021/07/27 11:58:48;;;;;;;;;;;28.10;99.90;;;;;;7017835;27;19934;-67
2021/07/27 12:02:09;;;;;;;;;;;28.00;99.90;;;;;;7020536;27;19918;-67
2021/07/27 12:05:30;;;;;;;;;;;27.70;99.90;;;;;;7039872;27;19915;-67
2021/07/27 12:08:51;;;;;;;;;;;26.80;99.90;;;;;;7028222;27;19916;-67
2021/07/27 12:12:12;;;;;;;;;;;26.20;99.90;;;;;;7021930;27;19912;-67
2021/07/27 12:15:33;;;;;;;;;;;25.80;99.90;;;;;;7028579;27;20350;-69
2021/07/27 12:18:54;;;;;;;;;;;26.10;99.90;;;;;;7017869;27;19911;-68
2021/07/27 12:22:15;;;;;;;;;;;26.60;99.90;;;;;;7023705;27;19912;-66
2021/07/27 12:25:36;;;;;;;;;;;27.80;99.90;;;;;;7037672;27;19911;-69
2021/07/27 12:28:56;;;;;;;;;;;27.90;99.90;;;;;;7027625;27;19959;-67
2021/07/27 12:32:17;;;;;;;;;;;27.90;99.90;;;;;;7045087;27;20003;-67
2021/07/27 12:35:38;;;;;;;;;;;28.20;99.90;;;;;;7011888;27;19918;-67
2021/07/27 12:38:59;;;;;;;;;;;28.80;99.90;;;;;;7022235;27;19911;-69
2021/07/27 12:42:21;;;;;;;;;;;29.50;99.90;;;;;;7013217;27;19912;-69
2021/07/27 12:45:43;;;;;;;;;;;29.20;99.90;;;;;;7025125;27;19911;-69
2021/07/27 12:49:04;;;;;;;;;;;29.10;99.90;;;;;;7019144;27;19919;-69
2021/07/27 12:52:25;;;;;;;;;;;27.90;99.90;;;;;;7034691;27;19956;-69
2021/07/27 12:55:45;;;;;;;;;;;28.00;99.90;;;;;;7023217;27;19935;-67
2021/07/27 12:59:09;;;;;;;;;;;29.50;99.90;;;;;;7006698;27;19962;-67
2021/07/27 13:02:30;;;;;;;;;;;30.10;99.90;;;;;;7032816;27;19950;-67
2021/07/27 13:05:52;;;;;;;;;;;28.90;99.90;;;;;;7008682;27;19911;-66
2021/07/27 13:09:13;;;;;;;;;;;28.90;99.90;;;;;;7032888;27;20382;-67
2021/07/27 13:12:34;;;;;;;;;;;29.40;99.90;;;;;;7035067;27;19922;-66
2021/07/27 13:15:56;;;;;;;;;;;28.60;99.90;;;;;;7028973;27;19911;-68
2021/07/27 13:19:17;;;;;;;;;;;29.30;99.90;;;;;;7013688;27;20052;-69
2021/07/27 13:22:38;;;;;;;;;;;29.20;99.90;;;;;;7020466;27;19912;-66
2021/07/27 13:25:58;;;;;;;;;;;28.80;99.90;;;;;;7012936;27;20019;-67
2021/07/27 13:29:19;;;;;;;;;;;29.40;99.90;;;;;;7000018;28;19916;-66
2021/07/27 13:32:40;;;;;;;;;;;30.20;99.90;;;;;;7037667;27;19912;-67
2021/07/27 13:36:01;;;;;;;;;;;30.50;99.90;;;;;;7020746;27;19922;-66
2021/07/27 13:39:23;;;;;;;;;;;30.80;99.90;;;;;;7018619;27;19919;-66
2021/07/27 13:42:44;;;;;;;;;;;29.50;99.90;;;;;;7007265;27;19916;-67
2021/07/27 13:46:05;;;;;;;;;;;28.20;99.90;;;;;;7018768;27;19964;-67
2021/07/27 13:49:28;;;;;;;;;;;28.20;99.90;;;;;;7014857;27;19927;-69
2021/07/27 13:52:48;;;;;;;;;;;29.30;99.90;;;;;;7053400;27;19919;-68
2021/07/27 13:56:09;;;;;;;;;;;30.00;99.90;;;;;;7032841;27;19912;-69
2021/07/27 13:59:30;;;;;;;;;;;30.70;99.90;;;;;;7050610;27;19915;-70
2021/07/27 14:02:51;;;;;;;;;;;30.50;99.90;;;;;;7002125;27;19919;-66
2021/07/27 14:06:13;;;;;;;;;;;29.40;99.90;;;;;;7016458;27;20054;-66
2021/07/27 14:09:34;;;;;;;;;;;29.10;99.90;;;;;;6996267;28;19923;-64
2021/07/27 14:12:55;;;;;;;;;;;28.70;99.90;;;;;;7000834;28;20064;-67
2021/07/27 14:16:17;;;;;;;;;;;28.80;99.90;;;;;;7001963;28;20288;-67
2021/07/27 14:19:38;;;;;;;;;;;28.30;99.90;;;;;;7018943;27;19915;-67
2021/07/27 14:22:59;;;;;;;;;;;28.50;99.90;;;;;;7034426;28;20478;-67
2021/07/27 14:26:20;;;;;;;;;;;28.00;99.90;;;;;;7018913;28;19968;-68
2021/07/27 14:29:40;;;;;;;;;;;27.80;99.90;;;;;;7008899;27;19961;-67
2021/07/27 14:33:01;;;;;;;;;;;27.70;99.90;;;;;;7048164;27;19911;-68
2021/07/27 14:36:22;;;;;;;;;;;27.80;99.90;;;;;;7018603;27;19911;-66
2021/07/27 14:39:43;;;;;;;;;;;28.50;99.90;;;;;;7044341;27;19918;-70
2021/07/27 14:43:03;;;;;;;;;;;29.00;99.90;;;;;;7018651;27;20011;-68
2021/07/27 14:46:24;;;;;;;;;;;29.50;99.90;;;;;;7037962;27;20299;-66
2021/07/27 14:49:45;;;;;;;;;;;29.80;99.90;;;;;;7016386;27;19916;-68
2021/07/27 14:53:06;;;;;;;;;;;30.00;99.90;;;;;;7015071;27;19912;-67
2021/07/27 14:56:27;;;;;;;;;;;29.70;99.90;;;;;;7017405;27;20052;-68
2021/07/27 14:59:47;;;;;;;;;;;29.30;99.90;;;;;;7043415;27;20391;-66
2021/07/27 15:03:08;;;;;;;;;;;29.10;99.90;;;;;;7026631;27;20456;-66
2021/07/27 15:06:29;;;;;;;;;;;28.50;99.90;;;;;;7022280;27;19994;-66
2021/07/27 15:09:50;;;;;;;;;;;28.00;99.90;;;;;;7054723;27;19955;-66
2021/07/27 15:13:12;;;;;;;;;;;28.00;99.90;;;;;;7039955;27;19911;-69
2021/07/27 15:16:32;;;;;;;;;;;28.00;99.90;;;;;;7048921;27;19919;-67
2021/07/27 15:19:53;;;;;;;;;;;27.80;99.90;;;;;;7027832;27;19955;-68
